createdAt,value
2023-01-26T01:39:34.695Z,27.48
2023-01-26T01:40:34.744Z,27.46
2023-01-26T01:41:34.770Z,27.43
2023-01-26T01:42:34.805Z,27.44
2023-01-26T01:43:34.862Z,27.46
2023-01-26T01:44:34.897Z,27.46
2023-01-26T01:45:34.942Z,27.48
2023-01-26T01:46:35.005Z,27.43
2023-01-26T01:47:35.026Z,27.42
2023-01-26T01:48:35.052Z,27.38
2023-01-26T01:49:35.106Z,27.40
2023-01-26T01:50:35.148Z,27.43
2023-01-26T01:51:35.182Z,27.40
2023-01-26T01:52:35.220Z,27.42
2023-01-26T01:53:35.268Z,27.42
2023-01-26T01:54:35.319Z,27.38
2023-01-26T01:55:35.359Z,27.51
2023-01-26T01:56:35.419Z,27.44
2023-01-26T01:57:35.469Z,27.47
2023-01-26T01:58:35.497Z,27.42
2023-01-26T01:59:35.580Z,27.37
2023-01-26T02:00:35.617Z,27.37
2023-01-26T02:01:35.664Z,27.38
2023-01-26T02:02:35.678Z,27.34
2023-01-26T02:03:35.728Z,27.31
2023-01-26T02:04:35.770Z,27.38
2023-01-26T02:05:35.813Z,27.26
2023-01-26T02:06:35.847Z,27.34
2023-01-26T02:07:35.905Z,27.42
2023-01-26T02:08:35.949Z,27.35
2023-01-26T02:09:36.018Z,27.40
2023-01-26T02:10:36.038Z,27.37
2023-01-26T02:11:36.088Z,27.34
2023-01-26T02:12:36.143Z,27.28
2023-01-26T02:13:36.189Z,27.34
2023-01-26T02:14:36.232Z,27.35
2023-01-26T02:15:36.290Z,27.32
2023-01-26T02:16:36.377Z,27.34
2023-01-26T02:17:36.378Z,27.34
2023-01-26T02:18:36.425Z,27.31
2023-01-26T02:19:36.493Z,27.35
2023-01-26T02:20:36.526Z,27.29
2023-01-26T02:21:36.567Z,27.32
2023-01-26T02:22:36.623Z,27.31
2023-01-26T04:09:41.478Z,27.00
2023-01-26T04:10:41.474Z,26.96
2023-01-26T04:11:41.520Z,26.99
2023-01-26T04:12:41.568Z,27.03
2023-01-26T04:13:41.605Z,26.98
2023-01-26T04:14:49.744Z,27.01
2023-01-26T04:16:41.715Z,27.01
2023-01-26T04:17:41.677Z,27.01
2023-01-26T04:18:41.695Z,27.03
2023-01-26T04:19:41.713Z,26.96
2023-01-26T04:20:41.711Z,26.95
2023-01-26T04:21:41.722Z,26.95
2023-01-26T04:22:41.724Z,27.01
2023-01-26T04:23:41.742Z,26.96
2023-01-26T04:24:41.752Z,26.93
2023-01-26T04:25:41.753Z,26.95
2023-01-26T04:26:41.759Z,26.95
2023-01-26T04:27:41.821Z,26.92
2023-01-26T04:28:41.779Z,26.90
2023-01-26T04:29:41.802Z,26.95
2023-01-26T04:30:41.927Z,26.90
2023-01-26T04:31:41.928Z,26.92
2023-01-26T04:32:41.839Z,26.93
2023-01-26T04:33:41.887Z,26.95
2023-01-26T04:34:41.940Z,26.89
2023-01-26T04:35:41.966Z,26.87
2023-01-26T04:36:42.022Z,26.98
2023-01-26T04:37:42.060Z,26.99
2023-01-26T04:38:42.111Z,26.92
2023-01-26T04:39:42.146Z,26.93
2023-01-26T04:40:42.200Z,26.93
2023-01-26T04:41:42.562Z,26.98
2023-01-26T04:42:42.290Z,26.95
2023-01-26T04:43:42.324Z,26.90
2023-01-26T04:44:42.366Z,26.92
2023-01-26T04:45:42.429Z,26.89
2023-01-26T04:46:42.454Z,26.86
2023-01-26T04:47:42.501Z,26.92
2023-01-26T04:48:42.554Z,26.90
2023-01-26T04:49:42.578Z,26.92
2023-01-26T04:50:42.618Z,26.92
2023-01-26T04:51:42.659Z,26.93
2023-01-26T04:52:42.712Z,26.95
2023-01-26T04:53:42.740Z,26.93
2023-01-26T04:54:42.768Z,26.92
2023-01-26T04:55:42.816Z,26.90
2023-01-26T04:56:42.856Z,26.88
2023-01-26T04:57:42.891Z,26.84
2023-01-26T08:08:51.404Z,27.20
2023-01-26T08:09:51.458Z,27.28
2023-01-26T08:10:51.493Z,27.24
2023-01-26T08:11:51.540Z,27.23
2023-01-26T08:12:51.587Z,27.32
2023-01-26T08:13:51.633Z,27.21
2023-01-26T08:14:51.676Z,27.76
2023-01-26T08:15:51.728Z,28.07
2023-01-26T08:16:51.780Z,28.03
2023-01-26T08:17:54.736Z,28.78
2023-01-26T08:18:51.834Z,29.68
2023-01-26T08:19:51.841Z,31.05
2023-01-26T08:20:51.853Z,30.77
2023-01-26T08:21:51.875Z,32.12
2023-01-26T08:22:51.860Z,32.02
2023-01-26T08:23:51.931Z,31.37
2023-01-26T08:24:51.863Z,30.91
2023-01-26T08:25:51.926Z,30.75
2023-01-26T08:26:51.874Z,30.66
2023-01-26T08:27:51.880Z,29.46
2023-01-26T08:28:51.882Z,29.27
2023-01-26T08:29:51.877Z,28.90
2023-01-26T08:30:51.900Z,28.68
2023-01-26T08:31:51.984Z,28.34
2023-01-26T08:32:51.900Z,28.34
2023-01-26T08:33:51.921Z,28.31
2023-01-26T08:34:51.924Z,28.68
2023-01-26T08:35:51.941Z,27.40
2023-01-26T08:36:51.932Z,25.35
2023-01-26T08:37:52.662Z,24.32
2023-01-26T08:38:51.990Z,23.51
2023-01-26T08:39:51.987Z,22.74
2023-01-26T08:40:52.009Z,22.16
2023-01-26T08:41:56.740Z,21.91
2023-01-26T08:42:53.051Z,24.68
2023-01-26T08:43:52.079Z,25.24
2023-01-26T08:44:52.088Z,23.32
2023-01-26T08:45:52.288Z,23.92
2023-01-26T08:46:52.732Z,24.56
2023-01-26T08:47:52.145Z,24.62
2023-01-26T08:48:52.147Z,26.19
2023-01-26T08:49:52.165Z,26.64
2023-01-26T08:50:52.188Z,26.75
2023-01-26T08:51:52.185Z,26.81
2023-01-26T08:52:52.222Z,26.84
2023-01-26T08:53:52.206Z,26.86
2023-01-26T08:54:52.229Z,26.97
2023-01-26T08:55:52.234Z,26.95
2023-01-26T08:56:52.243Z,26.91
2023-01-26T08:57:52.260Z,26.91
2023-01-26T08:58:52.286Z,26.94
2023-01-26T08:59:53.246Z,26.97
2023-01-26T09:00:52.354Z,26.96
2023-01-26T09:01:52.361Z,26.97
2023-01-26T09:02:52.382Z,27.02
2023-01-26T09:03:52.308Z,26.93
2023-01-26T09:04:52.327Z,26.98
2023-01-26T09:05:54.249Z,26.98
2023-01-26T09:06:52.321Z,26.95
2023-01-26T09:07:52.328Z,27.01
2023-01-26T09:08:52.332Z,27.01
2023-01-26T09:09:52.343Z,26.96
2023-01-26T09:10:52.347Z,27.17
2023-01-26T09:11:52.342Z,27.55
2023-01-26T09:12:52.359Z,28.03
2023-01-26T09:13:52.387Z,28.39
2023-01-26T09:14:52.399Z,28.75
2023-01-26T09:15:52.471Z,29.01
2023-01-26T09:16:52.664Z,29.31
2023-01-26T09:17:52.623Z,29.19
2023-01-26T09:18:52.686Z,28.85
2023-01-26T09:19:52.760Z,28.96
2023-01-26T09:20:52.829Z,28.99
2023-01-26T09:21:53.833Z,28.97
2023-01-26T09:22:52.924Z,29.14
2023-01-26T09:23:53.097Z,29.70
2023-01-26T09:24:53.085Z,29.65
2023-01-26T09:25:53.171Z,29.71
2023-01-26T09:26:53.252Z,29.89
2023-01-26T09:27:53.311Z,29.89
2023-01-26T09:28:53.383Z,28.28
2023-01-26T09:29:53.505Z,27.69
2023-01-26T09:30:53.681Z,27.11
2023-01-26T09:31:53.755Z,26.66
2023-01-26T09:32:55.179Z,25.81
2023-01-26T09:33:53.681Z,25.17
2023-01-26T09:34:53.629Z,25.95
2023-01-26T09:35:53.661Z,25.08
2023-01-26T09:36:53.656Z,25.53
2023-01-26T09:37:54.260Z,25.73
2023-01-26T09:38:53.660Z,26.52
2023-01-26T09:39:53.675Z,27.15
2023-01-26T09:40:53.684Z,27.59
2023-01-26T09:41:54.354Z,27.59
2023-01-26T09:42:53.692Z,27.77
2023-01-26T09:43:53.702Z,27.88
2023-01-26T09:44:53.732Z,28.04
2023-01-26T09:45:53.786Z,28.01
2023-01-26T09:46:53.826Z,27.98
2023-01-26T09:47:53.876Z,28.09
2023-01-26T09:48:53.926Z,28.06
2023-01-26T09:49:56.336Z,28.08
2023-01-26T09:50:53.971Z,28.07
2023-01-26T09:51:53.980Z,27.99
2023-01-26T09:52:53.972Z,28.02
2023-01-26T09:53:53.988Z,28.03
2023-01-26T09:54:54.006Z,27.91
2023-01-26T09:55:53.999Z,27.90
2023-01-26T09:56:54.000Z,27.98
2023-01-26T09:57:54.007Z,28.01
2023-01-26T09:58:54.013Z,27.99
2023-01-26T09:59:54.032Z,27.90
2023-01-26T10:00:54.032Z,27.94
2023-01-26T10:01:54.036Z,27.74
2023-01-26T10:02:54.095Z,25.43
2023-01-26T10:03:54.075Z,24.67
2023-01-26T10:04:54.089Z,24.20
2023-01-26T10:05:54.140Z,23.59
2023-01-26T10:06:54.128Z,24.51
2023-01-26T10:07:54.137Z,23.82
2023-01-26T10:08:54.150Z,25.02
2023-01-26T10:09:54.171Z,24.82
2023-01-26T10:10:54.168Z,25.31
2023-01-26T10:11:54.205Z,25.00
2023-01-26T10:12:54.247Z,25.95
2023-01-26T10:13:54.199Z,26.54
2023-01-26T10:14:55.939Z,26.52
2023-01-26T10:15:54.280Z,26.50
2023-01-26T10:16:54.232Z,26.45
2023-01-26T10:17:54.251Z,26.96
2023-01-26T10:18:54.251Z,27.13
2023-01-26T10:19:54.264Z,27.13
2023-01-26T10:20:54.286Z,27.27
2023-01-26T10:21:54.285Z,27.24
2023-01-26T10:22:55.324Z,27.31
2023-01-26T10:23:54.355Z,27.54
2023-01-26T10:24:54.312Z,26.94
2023-01-26T10:25:54.320Z,26.84
2023-01-26T10:26:54.326Z,26.73
2023-01-26T10:27:54.340Z,26.81
2023-01-26T10:28:54.329Z,26.75
2023-01-26T10:29:54.339Z,26.73
2023-01-26T10:30:54.480Z,26.61
2023-01-26T10:31:54.337Z,26.67
2023-01-26T10:32:54.343Z,26.66
2023-01-26T10:33:54.343Z,26.63
2023-01-26T10:34:54.347Z,26.78
2023-01-26T10:35:54.356Z,26.66
2023-01-26T10:36:54.359Z,26.59
2023-01-26T10:37:54.359Z,26.64
2023-01-26T10:38:54.363Z,26.63
2023-01-26T10:39:54.375Z,26.64
2023-01-26T10:40:54.382Z,26.66
2023-01-26T10:41:54.390Z,26.75
2023-01-26T10:42:54.386Z,26.73
2023-01-26T10:43:54.399Z,26.89
2023-01-26T10:44:54.406Z,26.89
2023-01-26T10:45:54.423Z,26.73
2023-01-26T10:46:54.419Z,26.81
2023-01-26T10:47:54.426Z,26.82
2023-01-26T10:48:55.282Z,26.79
2023-01-26T10:49:54.446Z,26.82
2023-01-26T10:50:54.458Z,26.87
2023-01-26T10:51:54.440Z,26.84
2023-01-26T10:52:54.476Z,26.87
2023-01-26T10:53:54.468Z,26.93
2023-01-26T10:54:54.474Z,27.17
2023-01-26T10:55:54.473Z,27.13
2023-01-26T10:56:54.507Z,27.07
2023-01-26T10:57:54.540Z,27.17
2023-01-26T10:58:54.598Z,27.26
2023-01-26T10:59:54.634Z,27.20
2023-01-26T11:00:54.688Z,27.27
2023-01-26T11:01:54.740Z,27.37
2023-01-26T11:02:54.840Z,27.52
2023-01-26T11:03:55.324Z,27.21
2023-01-26T11:04:54.856Z,27.18
2023-01-26T11:05:54.906Z,27.12
2023-01-26T11:06:54.985Z,26.98
2023-01-26T11:07:55.008Z,26.90
2023-01-26T11:08:55.024Z,27.39
2023-01-26T11:09:55.063Z,27.15
2023-01-26T11:10:55.109Z,28.16
2023-01-26T11:11:55.185Z,28.75
2023-01-26T11:12:55.263Z,29.50
2023-01-26T11:13:55.343Z,29.59
2023-01-26T11:14:55.406Z,29.52
2023-01-26T11:15:55.522Z,29.55
2023-01-26T11:16:55.548Z,29.17
2023-01-26T11:17:55.603Z,29.39
2023-01-26T11:18:55.663Z,29.23
2023-01-26T11:19:55.795Z,29.23
2023-01-26T11:20:55.736Z,29.06
2023-01-26T11:21:55.765Z,28.94
2023-01-26T11:22:55.765Z,28.92
2023-01-26T11:23:55.846Z,28.89
2023-01-26T11:24:55.808Z,28.93
2023-01-26T11:25:55.823Z,28.91
2023-01-26T11:26:55.847Z,28.80
2023-01-26T11:27:55.848Z,28.85
2023-01-26T11:28:55.865Z,28.59
2023-01-26T12:47:56.984Z,31.44
2023-01-26T12:48:56.984Z,31.56
2023-01-26T12:49:57.098Z,31.69
2023-01-26T12:50:57.029Z,31.86
2023-01-26T12:51:57.751Z,32.04
2023-01-26T12:53:57.091Z,31.98
2023-01-26T12:54:57.055Z,31.83
2023-01-26T12:55:57.068Z,31.98
2023-01-26T12:56:57.078Z,32.06
2023-01-26T12:57:57.093Z,32.30
2023-01-26T12:58:57.102Z,32.14
2023-01-26T12:59:57.110Z,31.67
2023-01-26T13:00:57.121Z,31.94
2023-01-26T13:01:57.134Z,31.95
2023-01-26T13:02:57.145Z,32.09
2023-01-26T13:03:57.172Z,32.06
2023-01-26T13:04:57.184Z,32.04
2023-01-26T13:05:57.226Z,32.12
2023-01-26T13:06:57.257Z,32.04
2023-01-26T13:07:57.277Z,32.22
2023-01-26T13:08:57.313Z,32.20
2023-01-26T13:09:57.321Z,32.29
2023-01-26T13:10:57.335Z,32.37
2023-01-26T13:11:57.355Z,32.49
2023-01-26T13:12:57.377Z,32.35
2023-01-26T15:51:59.757Z,31.33
2023-01-26T15:52:59.767Z,31.33
2023-01-26T15:53:59.786Z,31.27
2023-01-26T15:54:59.815Z,31.21
2023-01-26T15:55:59.833Z,31.01
2023-01-26T15:56:59.862Z,31.12
2023-01-26T15:57:59.896Z,31.15
2023-01-26T15:58:59.913Z,31.10
2023-01-26T15:59:59.938Z,31.04
2023-01-26T16:01:00.007Z,31.12
2023-01-26T16:01:59.994Z,31.13
2023-01-26T16:03:00.017Z,31.15
2023-01-26T16:04:00.053Z,31.15
2023-01-26T16:05:00.074Z,31.19
2023-01-26T16:06:00.101Z,31.19
2023-01-26T16:07:00.129Z,31.23
2023-01-26T16:08:00.145Z,31.91
2023-01-26T16:09:00.180Z,31.92
2023-01-26T16:10:01.187Z,31.68
2023-01-26T16:11:00.243Z,31.41
2023-01-26T16:12:00.257Z,31.40
2023-01-26T16:40:01.436Z,29.01
2023-01-26T16:41:01.530Z,28.82
2023-01-26T16:42:01.548Z,28.87
2023-01-26T16:43:01.587Z,28.78
2023-01-26T16:44:01.648Z,28.78
2023-01-26T16:45:01.666Z,29.23
2023-01-26T16:46:01.754Z,29.46
2023-01-26T16:47:01.775Z,27.96
2023-01-26T16:48:01.797Z,26.37
2023-01-26T16:49:01.831Z,28.48
2023-01-26T16:50:01.867Z,27.75
2023-01-26T16:51:01.897Z,26.90
2023-01-26T16:52:01.947Z,26.67
2023-01-26T16:53:01.974Z,27.58
2023-01-26T16:54:02.027Z,27.94
2023-01-26T16:55:02.053Z,28.07
2023-01-26T16:56:02.087Z,28.23
2023-01-26T16:57:02.128Z,28.25
2023-01-26T16:58:02.175Z,28.37
2023-01-26T16:59:03.533Z,28.50
2023-01-26T17:00:02.250Z,28.62
2023-01-26T17:01:02.335Z,28.70
2023-01-26T17:02:02.394Z,28.73
2023-01-26T17:03:02.384Z,28.79
2023-01-26T17:04:02.457Z,28.95
2023-01-26T17:05:02.481Z,29.03
2023-01-26T17:06:02.524Z,29.03
2023-01-26T17:07:02.580Z,29.20
2023-01-26T17:08:02.618Z,29.12
2023-01-26T17:09:02.670Z,29.20
2023-01-26T17:10:02.701Z,29.30
2023-01-26T17:11:03.096Z,29.29
2023-01-26T17:12:02.783Z,29.35
2023-01-26T17:27:03.440Z,29.77
2023-01-26T17:28:03.481Z,29.74
2023-01-26T17:29:03.528Z,29.80
2023-01-26T17:30:03.567Z,29.86
2023-01-26T17:31:03.668Z,29.86
2023-01-26T17:32:03.696Z,29.85
2023-01-26T17:33:03.703Z,29.83
2023-01-26T17:34:03.767Z,29.89
2023-01-26T17:35:03.812Z,29.85
2023-01-26T17:36:03.841Z,29.89
2023-01-26T17:37:03.876Z,29.85
2023-01-26T17:38:03.973Z,29.89
2023-01-26T17:39:03.982Z,29.93
2023-01-26T17:40:04.017Z,29.91
2023-01-26T17:41:04.068Z,29.90
2023-01-26T17:42:04.107Z,29.91
2023-01-26T17:43:04.159Z,29.91
2023-01-26T17:44:04.223Z,29.91
2023-01-26T17:45:04.259Z,29.93
2023-01-26T17:46:04.335Z,29.89
2023-01-26T17:47:04.355Z,29.93
2023-01-26T17:48:04.406Z,29.85
2023-01-26T17:49:04.446Z,29.86
2023-01-26T17:50:04.538Z,29.86
2023-01-26T17:51:04.533Z,29.89
2023-01-26T17:52:04.581Z,29.89
2023-01-26T17:53:04.648Z,29.79
2023-01-26T17:54:04.703Z,29.83
2023-01-26T17:55:04.952Z,29.83
2023-01-26T17:56:06.012Z,29.75
2023-01-26T17:57:04.785Z,29.83
2023-01-26T17:58:04.778Z,29.83
2023-01-26T17:59:04.789Z,29.79
2023-01-26T18:00:04.788Z,29.74
2023-01-26T18:01:04.877Z,29.76
2023-01-26T18:02:04.817Z,29.74
2023-01-26T18:03:04.790Z,29.72
2023-01-26T18:04:04.797Z,29.72
2023-01-26T18:05:04.800Z,29.71
2023-01-26T18:06:04.808Z,29.70
2023-01-26T18:07:04.824Z,29.62
2023-01-26T18:08:04.826Z,29.60
2023-01-26T18:09:04.839Z,29.63
2023-01-26T18:10:04.841Z,29.62
2023-01-26T18:11:04.853Z,29.60
2023-01-26T18:12:04.861Z,29.58
2023-01-26T18:13:04.863Z,29.59
2023-01-26T18:14:04.876Z,29.54
2023-01-26T18:15:04.883Z,29.52
2023-01-26T18:16:04.878Z,29.51
2023-01-26T18:17:04.907Z,29.50
2023-01-26T18:18:04.893Z,29.49
2023-01-26T18:19:04.929Z,29.48
2023-01-26T18:20:04.927Z,29.46
2023-01-26T18:21:04.919Z,29.43
2023-01-26T18:22:04.940Z,29.44
2023-01-26T18:23:04.938Z,29.41
2023-01-26T18:24:04.991Z,29.41
2023-01-26T18:25:04.946Z,29.46
2023-01-26T18:26:04.949Z,29.35
2023-01-26T18:27:04.955Z,29.35
2023-01-26T18:28:07.228Z,29.35
2023-01-26T18:29:04.971Z,29.33
2023-01-26T18:30:04.970Z,29.31
2023-01-26T18:31:05.014Z,29.32
2023-01-26T18:32:05.120Z,29.31
2023-01-26T18:33:04.988Z,29.34
2023-01-26T18:34:05.001Z,29.26
2023-01-26T18:35:05.022Z,29.26
2023-01-26T18:36:05.025Z,29.23
2023-01-26T18:37:05.026Z,29.21
2023-01-26T18:38:05.110Z,29.21
2023-01-26T18:39:05.032Z,29.21
2023-01-26T18:40:05.061Z,29.20
2023-01-26T18:41:05.044Z,29.20
2023-01-26T18:42:05.060Z,29.15
2023-01-26T18:43:05.059Z,29.17
2023-01-26T18:44:05.059Z,29.18
2023-01-26T18:45:05.076Z,29.15
2023-01-26T18:46:05.107Z,29.17
2023-01-26T18:47:05.087Z,29.18
2023-01-26T18:48:05.085Z,29.13
2023-01-26T18:49:05.095Z,29.07
2023-01-26T18:50:05.099Z,29.07
2023-01-26T18:51:05.107Z,29.06
2023-01-26T18:52:05.119Z,29.13
2023-01-26T18:53:05.128Z,29.09
2023-01-26T18:54:05.151Z,29.07
2023-01-26T18:55:05.158Z,29.09
2023-01-26T18:56:05.155Z,29.01
2023-01-26T18:57:05.155Z,29.09
2023-01-26T18:58:05.157Z,29.04
2023-01-26T18:59:05.182Z,28.98
2023-01-26T19:00:05.192Z,29.07
2023-01-26T19:01:05.242Z,29.02
2023-01-26T19:02:05.239Z,29.04
2023-01-26T19:03:05.219Z,29.10
2023-01-26T19:04:05.222Z,29.04
2023-01-26T19:05:05.249Z,29.01
2023-01-26T19:06:05.265Z,29.02
2023-01-26T19:07:05.251Z,29.01
2023-01-26T19:08:05.266Z,29.04
2023-01-26T19:09:05.288Z,29.04
2023-01-26T19:10:05.273Z,29.01
2023-01-26T19:11:05.281Z,28.99
2023-01-26T19:12:05.295Z,28.96
2023-01-26T19:13:05.312Z,29.02
2023-01-26T19:14:05.321Z,28.99
2023-01-26T19:15:05.335Z,28.99
2023-01-26T19:16:07.866Z,28.99
2023-01-26T19:17:05.357Z,28.96
2023-01-26T19:18:05.340Z,28.96
2023-01-26T19:19:05.363Z,28.98
2023-01-26T19:20:05.360Z,28.98
2023-01-26T19:21:05.375Z,28.96
2023-01-26T19:22:05.376Z,28.98
2023-01-26T19:23:05.388Z,28.95
2023-01-26T22:07:11.441Z,27.85
2023-01-26T22:08:11.495Z,27.87
2023-01-26T22:09:11.553Z,27.88
2023-01-26T22:10:11.937Z,27.85
2023-01-26T22:11:11.661Z,27.84
2023-01-26T22:12:11.718Z,27.88
2023-01-26T22:13:11.770Z,27.82
2023-01-26T22:14:11.822Z,27.85
2023-01-26T22:15:11.866Z,27.84
2023-01-26T22:16:11.959Z,27.81
2023-01-26T22:17:11.971Z,27.79
2023-01-26T22:18:12.041Z,27.82
2023-01-26T22:19:12.076Z,27.84
2023-01-26T22:20:12.429Z,27.82
2023-01-26T22:21:12.182Z,27.81
2023-01-26T22:22:12.242Z,27.79
2023-01-26T22:23:12.288Z,27.76
2023-01-26T22:24:12.435Z,27.78
2023-01-26T22:25:12.407Z,27.76
2023-01-26T22:26:12.463Z,27.78
2023-01-26T22:27:12.513Z,27.69
2023-01-26T22:28:12.645Z,27.76
2023-01-26T22:29:12.683Z,27.75
2023-01-26T22:30:13.006Z,27.71
2023-01-26T22:31:13.664Z,27.71
2023-01-26T22:32:12.792Z,27.71
2023-01-26T22:33:12.843Z,27.71
2023-01-26T22:34:12.893Z,27.65
2023-01-26T22:35:12.957Z,27.69
2023-01-26T22:36:12.993Z,27.67
2023-01-26T22:37:13.036Z,27.65
2023-01-26T22:38:13.096Z,27.72
2023-01-26T22:39:13.158Z,27.73
2023-01-26T22:40:13.512Z,27.70
2023-01-26T22:41:13.245Z,27.69
2023-01-26T22:42:13.287Z,27.67
2023-01-26T22:43:13.349Z,27.64
2023-01-26T22:44:13.393Z,27.62
2023-01-26T22:45:13.445Z,27.61
2023-01-26T22:46:13.493Z,27.62
2023-01-26T22:47:13.554Z,27.61
2023-01-26T22:48:13.613Z,27.58
2023-01-26T22:49:13.660Z,27.59
2023-01-26T22:50:14.019Z,27.59
2023-01-26T22:51:13.766Z,27.58
2023-01-26T22:52:13.823Z,27.62
2023-01-26T22:53:13.884Z,27.62
2023-01-26T22:54:13.931Z,27.56
2023-01-26T22:55:13.968Z,27.56
2023-01-26T22:56:14.023Z,27.59
2023-01-26T22:57:14.073Z,27.54
2023-01-26T22:58:14.129Z,27.58
2023-01-26T22:59:14.184Z,27.54
2023-01-26T23:00:14.476Z,27.55
2023-01-26T23:01:14.379Z,27.54
2023-01-26T23:02:14.335Z,27.58
2023-01-26T23:03:14.403Z,27.56
2023-01-26T23:04:14.488Z,27.54
2023-01-26T23:05:14.492Z,27.56
2023-01-26T23:06:14.556Z,27.52
2023-01-26T23:07:14.596Z,27.50
2023-01-26T23:08:14.687Z,27.51
2023-01-26T23:09:14.711Z,27.50
2023-01-26T23:10:14.914Z,27.45
2023-01-26T23:11:14.826Z,27.47
2023-01-26T23:12:14.864Z,27.42
2023-01-26T23:13:14.940Z,27.48
2023-01-26T23:14:14.985Z,27.42
2023-01-26T23:15:15.038Z,27.44
2023-01-26T23:16:15.157Z,27.45
2023-01-26T23:17:15.133Z,27.40
2023-01-26T23:18:15.189Z,27.42
2023-01-26T23:19:15.243Z,27.37
2023-01-26T23:20:15.291Z,27.39
2023-01-26T23:21:15.343Z,27.42
2023-01-26T23:22:15.404Z,27.37
2023-01-26T23:23:15.454Z,27.40
2023-01-26T23:24:15.522Z,27.40
2023-01-26T23:25:15.570Z,27.42
2023-01-26T23:26:15.621Z,27.40
2023-01-26T23:27:15.688Z,27.34
2023-01-26T23:28:15.746Z,27.37
2023-01-26T23:29:15.805Z,27.34
2023-01-26T23:30:15.864Z,27.33
2023-01-26T23:31:16.037Z,27.33
2023-01-26T23:32:15.974Z,27.30
2023-01-26T23:33:16.029Z,27.31
2023-01-26T23:34:16.108Z,27.32
2023-01-26T23:35:16.143Z,27.31
2023-01-26T23:36:16.216Z,27.32
2023-01-26T23:37:16.256Z,27.30
2023-01-26T23:38:16.314Z,27.28
2023-01-26T23:39:16.367Z,27.28
2023-01-26T23:40:16.445Z,27.29
2023-01-26T23:41:16.491Z,27.33
2023-01-26T23:42:16.540Z,27.28
2023-01-26T23:43:17.495Z,27.30
2023-01-26T23:44:16.666Z,27.31
2023-01-26T23:45:16.715Z,27.28
2023-01-26T23:46:16.847Z,27.28
2023-01-26T23:47:16.966Z,27.28
